Gujranwala, Pakistan
Current Conditions -  °F | °C
As of 11:25 AM on Wednesday 26 Nov 2014 (Local Time) from OPLA Reporting Station
Haze Haze  
Wind Chill: 70°   Ceiling: Unl
Heat Index: 70°   Visibility: 1.8mi
Dew Point: 46°   Wind: 5mph
Humidity: 43%   Direction: 280°W
Pressure: 29.91"   Gusts: NA
Location:  32.16°N, 74.18°E
Report Text: OPLA 260625Z 28004KT 3000 HZ NSC 21/08 Q1013
Loading
Personal Weather Stations






























Interactive Weather Map New forecast layout! Learn more

10-Day Weather Forecast

Advertisements
Track Severe Weather on mobile